Terminal Aerodrome Forecast
Issued by NWS

Home | Current Version | Previous Version | Graphics & Text | Print | Product List | Glossary On
Versions: 1 2 3 4 5 6 7 8 9 10 11 12 13 14 15 16
000
FTUS43 KGRB 180200 AAA
TAFRHI
TAF AMD
KRHI 180215Z 1802/1824 29007KT P6SM BKN022
     FM180500 29004KT P6SM SCT025 SCT250
     FM180800 29003KT 3SM BR SCT006 SCT250
      TEMPO 1809/1813 3/4SM BR BKN006 BKN250
     FM181300 32003KT 5SM BR SCT012 BKN120
     FM181500 33005KT P6SM SCT025 BKN120
     FM182000 08007KT P6SM SCT040 BKN120=

USA.gov is the U.S. government's official web portal to all federal, state and local government web resources and services.